LFRGLFSD

Guest
Details From LFRG - Deauville Saint Gatien
To LFSD - Dijon Longvic AB
Flight Number -
Tags generated
Created
Modified
Stats Distance 235 nm / 435 km
Max Altitude 29,200 ft / 8,900 m
Waypoints 5
Social Downloads 1
Likes 0
Share VATSIM

Download

Looking for another format? Having issues loading an existing format? Contact us
Advertisement - Login to hide

Notes

Basic altitude profile: - Ascent Rate: 2500ft/min - Ascent Speed: 250kts - Cruise Altitude: 35000ft - Cruise Speed: 420kts - Descent Rate: 1500ft/min - Descent Speed: 250kts Options: - Use NATs: no - Use PACOTS: no - Use low airways: yes - Use high airways: yes

Route

LFRG RESMI UM975 PILUL LFSD

ID Type Via Altitude Latitude Longitude Leg Dist Tot Dist Heading (true) Name
O LFRG APT - 0 ft / 0 m 49.36530˚ 0.15432˚ - 0 nm - Deauville Saint Gatien
RESMI FIX - 29,200 ft / 8,900 m 48.56861˚ 2.19194˚ 93 nm 93 nm 120° / 122° -
PEKIM FIX UM975 (AWY-HI) 23,600 ft / 7,193 m 48.27583˚ 2.82556˚ 30 nm 124 nm 125° / 125° -
PILUL FIX UM975 (AWY-HI) 19,500 ft / 5,944 m 48.08333˚ 3.04806˚ 14 nm 138 nm 142° / 142° -
O LFSD APT - 0 ft / 0 m 47.26901˚ 5.09012˚ 95 nm 234 nm 120° / 121° Dijon Longvic AB

Altitude Profile

Advertisement - Login to hide

Weather


0- 5 10 15 20 25 30 35+ Temperature / ° C

Clouds and Precipitation
Forecast for 2017-12-17 00:00 UTC. Updated an hour ago

Ground ~20,000 ft ~40,000 ft Winds

LFRG

Details ICAO LFRG (DOL)
Name Deauville Saint Gatien
Region France
Timezone Europe/Paris (UTC+1.0)
Stats Elevation 479 ft / 146 m (AMSL)
Location 49.365296° 0.154324°
Runways 1
Magnetic Variation 0.141° W

METAR

LFRG 170000Z AUTO 36006KT 9999 SCT021 BKN033 BKN044 06/03 Q1023

Decode

TAF

Not found

Departure Runways

ID Width Length Bearing (true) Bearing (mag) Surface Threshold Offset Overrun Length
12 148 ft / 45 m 8,344 ft / 2,543 m 117.22° 117.36° Asphalt 1,476 ft / 450 m 0 ft / 0 m
30 148 ft / 45 m 8,344 ft / 2,543 m 297.25° 297.39° Asphalt 1,378 ft / 420 m 0 ft / 0 m

LFSD

Details ICAO LFSD (DIJ)
Name Dijon Longvic AB
Region France
Timezone Europe/Paris (UTC+1.0)
Stats Elevation 726 ft / 221 m (AMSL)
Location 47.269011° 5.090116°
Runways 2
Magnetic Variation 1.449° E

METAR

LFSD 170000Z AUTO 00000KT CAVOK M02/M02 Q1023

Decode

TAF

Not found

Destination Runways

ID Width Length Bearing (true) Bearing (mag) Surface Threshold Offset Overrun Length
02 118 ft / 36 m 6,054 ft / 1,845 m 15.20° 13.75° Asphalt 0 ft / 0 m 328 ft / 100 m
18 148 ft / 45 m 7,877 ft / 2,401 m 175.00° 173.55° Asphalt 0 ft / 0 m 1,385 ft / 422 m
20 118 ft / 36 m 6,054 ft / 1,845 m 195.20° 193.75° Asphalt 0 ft / 0 m 443 ft / 135 m
36 148 ft / 45 m 7,877 ft / 2,401 m 355.00° 353.55° Asphalt 0 ft / 0 m 1,099 ft / 335 m

Approach Navaids

Runway Type Ident Frequency Range Bearing (true) Bearing (mag) Slope Elevation
36 Localiser DJ 109.50 MHz 18 nm / 33 km 354.99° 353.54° - 728 ft / 222 m (AMSL)
36 Glidescope DJ 109.50 MHz 10 nm / 19 km 355.00° 353.55° 3.00° 728 ft / 222 m (AMSL)